Please enter the email address for your account. A verification code will be sent to you. Once you have received the verification code, you will be able to choose a new password for your account.

METAR TAF

[Source: ADDS]
METAR
LFCR 231100Z AUTO 26005KT 9999 -RA FEW019/// BKN074/// OVC086/// ///CB 13/12 Q1018 TEMPO 27015G25KT 4000 -TSRA BKN009 BKN050CB =
LFCR 231100Z 2312/2412 31010KT 9999 SCT016 BKN040 TEMPO 2312/2318 -SHRA BKN012 BKN050TCU PROB30 TEMPO 2312/2317 27015G25KT 4000 -TSRA BKN009 BKN050CB BECMG 2318/2320 BKN012 TEMPO 2320/2406 BKN006 BECMG 2402/2404 VRB02KT PROB40 TEMPO 2403/2406 3000 BR OVC002 BECMG 2407/2409 BKN013 BECMG 2410/2412 BKN016 LFBA 231100Z AUTO 25007KT 220V280 9999 BKN027 BKN034 OVC084 18/13 Q1017 TEMPO 27015G25KT 3000 TSRA BKN018CB =
AMD LFBA 230800Z 2308/2315 27010KT 9999 BKN040 TEMPO 2308/2315 4000 SHRA FEW018CB BKN020TCU PROB40 TEMPO 2310/2315 27015G25KT 3000 TSRA BKN018CB LFSL 231100Z AUTO 20005KT 150V250 9999 BKN009 OVC014 15/13 Q1017 TEMPO 4000 -TSRA BKN010 BKN040CB =
LFSL 231100Z 2312/2321 24008KT 9999 SCT030 BKN080 TEMPO 2312/2318 4000 SHRA BKN009 BKN050TCU PROB30 TEMPO 2312/2315 4000 -TSRA BKN003 BKN040CB LFLW 231100Z AUTO VRB03KT 9999 -RA BKN008/// BKN024/// BKN062/// ///CB 14/13 Q1017 TEMPO 4000 SHRA BKN011 BKN050TCU =
LFLW 231100Z 2312/2321 VRB02KT 9999 BKN018 BKN060 TEMPO 2312/2321 26017KT 4000 SHRA BKN011 BKN050TCU PROB30 TEMPO 2312/2314 4000 -TSRA BKN009 BKN040CB
TAF
LFCR 231100Z 2312/2412 31010KT 9999 SCT016 BKN040 TEMPO 2312/2318 -SHRA BKN012 BKN050TCU PROB30 TEMPO 2312/2317 27015G25KT 4000 -TSRA BKN009 BKN050CB BECMG 2318/2320 BKN012 TEMPO 2320/2406 BKN006 BECMG 2402/2404 VRB02KT PROB40 TEMPO 2403/2406 3000 BR OVC002 BECMG 2407/2409 BKN013 BECMG 2410/2412 BKN016 =
AMD LFBA 230800Z 2308/2315 27010KT 9999 BKN040 TEMPO 2308/2315 4000 SHRA FEW018CB BKN020TCU PROB40 TEMPO 2310/2315 27015G25KT 3000 TSRA BKN018CB =
LFSL 231100Z 2312/2321 24008KT 9999 SCT030 BKN080 TEMPO 2312/2318 4000 SHRA BKN009 BKN050TCU PROB30 TEMPO 2312/2315 4000 -TSRA BKN003 BKN040CB =
LFLW 231100Z 2312/2321 VRB02KT 9999 BKN018 BKN060 TEMPO 2312/2321 26017KT 4000 SHRA BKN011 BKN050TCU PROB30 TEMPO 2312/2314 4000 -TSRA BKN009 BKN040CB =
SR / SS: 06:19 / 16:56 UTC (LFCC 2020-10-23)